Time;durP1;ratioP1;P1;durP2;ratioP2;P2;SDS_P1;SDS_P2;PMS_P1;PMS_P2;Temp;Humidity;BMP_temperature;BMP_pressure;BME280_temperature;BME280_humidity;BME280_pressure;Samples;Min_cycle;Max_cycle;Signal;HPM_P1;HPM_P2
2022/02/14 00:01:24;;;;;;;7.23;1.97;;;;;;;-145.69;53.40;72084.97;5093471;28;20198;-77
2022/02/14 00:03:56;;;;;;;3.53;2.00;;;;;;;-145.69;50.52;72104.88;5093170;28;20656;-78
2022/02/14 00:06:24;;;;;;;4.37;1.80;;;;;;;-145.69;50.16;72065.06;5093599;28;20198;-78
2022/02/14 00:08:53;;;;;;;2.97;1.63;;;;;;;-145.69;50.82;72094.94;5093025;28;20202;-78
2022/02/14 00:11:24;;;;;;;7.40;2.10;;;;;;;-145.69;53.11;72128.75;5100704;28;20292;-78
2022/02/14 00:13:56;;;;;;;5.77;2.10;;;;;;;-145.69;54.13;72146.69;5112729;28;20254;-78
2022/02/14 00:16:24;;;;;;;3.50;1.63;;;;;;;-145.69;47.57;72090.94;5113508;28;20201;-78
2022/02/14 00:18:51;;;;;;;3.80;2.03;;;;;;;-145.69;50.67;72082.97;5113389;28;20221;-78
2022/02/14 00:21:20;;;;;;;2.20;1.73;;;;;;;-145.69;50.90;72098.91;5112651;28;20193;-78
2022/02/14 00:23:57;;;;;;;4.40;1.83;;;;;;;-145.69;54.13;72116.81;5112419;28;20197;-78
2022/02/14 00:26:31;;;;;;;4.70;2.03;;;;;;;-145.69;53.25;72114.81;5113497;28;20204;-78
2022/02/14 00:29:11;;;;;;;2.57;1.80;;;;;;;-145.69;52.08;72108.84;5112366;28;20205;-78
2022/02/14 00:31:44;;;;;;;4.50;2.13;;;;;;;-145.69;52.82;72116.81;5092748;28;20205;-78
2022/02/14 00:36:56;;;;;;;3.97;1.87;;;;;;;-145.69;48.54;72067.06;5091617;28;20206;-77
2022/02/14 00:39:28;;;;;;;4.53;1.93;;;;;;;-145.69;51.55;72084.97;5092838;28;20236;-77
2022/02/14 00:42:08;;;;;;;4.77;1.80;;;;;;;-145.69;53.51;72122.78;5107617;28;20219;-77
2022/02/14 00:44:41;;;;;;;7.50;1.93;;;;;;;-145.69;51.63;72116.81;5113092;28;20229;-77
2022/02/14 00:47:07;;;;;;;6.47;1.90;;;;;;;-145.69;50.25;72118.81;5113340;28;20533;-78
2022/02/14 00:49:34;;;;;;;3.23;1.60;;;;;;;-145.69;47.83;72094.94;5113077;28;20201;-78
2022/02/14 00:52:02;;;;;;;3.90;1.53;;;;;;;-145.69;46.43;72071.03;5113129;28;20205;-78
2022/02/14 00:54:34;;;;;;;3.00;1.80;;;;;;;-145.69;45.46;72059.09;5113516;28;20193;-78
2022/02/14 00:57:04;;;;;;;2.93;1.80;;;;;;;-145.69;53.47;72098.91;5113183;28;20208;-78
2022/02/14 00:59:30;;;;;;;3.00;1.57;;;;;;;-145.69;49.41;72084.97;5113206;28;20231;-78
2022/02/14 01:02:08;;;;;;;4.00;1.47;;;;;;;-145.69;49.42;72086.97;5113114;28;20201;-78
2022/02/14 01:04:41;;;;;;;2.23;1.50;;;;;;;-145.69;48.92;72067.06;5117136;28;20197;-78
2022/02/14 01:07:09;;;;;;;3.07;1.70;;;;;;;-145.69;56.13;72092.94;5117062;28;20201;-78
2022/02/14 01:09:41;;;;;;;5.23;2.10;;;;;;;-145.69;49.83;72092.94;5116781;28;20274;-78
2022/02/14 01:12:10;;;;;;;3.57;1.80;;;;;;;-145.69;50.90;72075.03;5099219;28;20198;-78
2022/02/14 01:14:36;;;;;;;4.93;1.77;;;;;;;-145.69;55.46;72126.78;5096628;28;20201;-78
2022/02/14 01:17:07;;;;;;;3.07;1.80;;;;;;;-145.69;57.39;72172.53;5096414;28;20205;-78
2022/02/14 01:19:36;;;;;;;3.37;1.37;;;;;;;-145.69;54.03;72180.50;5096344;28;20317;-78
2022/02/14 01:22:19;;;;;;;3.00;1.90;;;;;;;-145.69;53.59;72154.63;5096049;28;20260;-79
2022/02/14 01:24:51;;;;;;;4.60;1.43;;;;;;;-145.69;42.97;72061.09;5100805;28;20690;-78
2022/02/14 01:27:20;;;;;;;2.93;1.70;;;;;;;-145.69;43.53;72025.28;5116924;28;20214;-78
2022/02/14 01:29:47;;;;;;;4.07;1.77;;;;;;;-145.69;40.47;72001.38;5116600;28;20678;-79
2022/02/14 01:32:19;;;;;;;2.87;1.47;;;;;;;-145.69;41.70;71979.50;5116006;28;20284;-79
2022/02/14 01:34:46;;;;;;;1.63;1.13;;;;;;;-145.69;44.44;72009.34;5116419;28;20720;-78
2022/02/14 01:37:18;;;;;;;2.90;1.70;;;;;;;-145.69;39.03;71999.41;5116549;28;20198;-78
2022/02/14 01:39:45;;;;;;;1.77;1.13;;;;;;;-145.69;44.44;72015.31;5116047;28;20723;-78
2022/02/14 01:42:14;;;;;;;2.40;1.37;;;;;;;-145.69;44.11;72033.22;5095962;28;20202;-78
2022/02/14 01:44:50;;;;;;;3.73;1.73;;;;;;;-145.69;41.68;71995.41;5094970;28;20435;-79
2022/02/14 01:47:21;;;;;;;5.80;2.70;;;;;;;-145.69;43.30;71991.44;5095959;28;20288;-79
2022/02/14 01:49:51;;;;;;;3.90;1.40;;;;;;;-145.69;43.05;72003.38;5095926;28;20194;-79
2022/02/14 01:52:18;;;;;;;2.33;1.60;;;;;;;-145.69;43.02;72021.28;5096146;28;20220;-79
2022/02/14 01:54:48;;;;;;;2.13;1.30;;;;;;;-145.69;45.68;72071.03;5095852;28;20198;-78
2022/02/14 01:57:18;;;;;;;2.97;1.83;;;;;;;-145.69;43.74;72039.19;5095744;28;20194;-78
2022/02/14 01:59:47;;;;;;;3.53;1.63;;;;;;;-145.69;44.83;72037.22;5095484;28;20230;-78
2022/02/14 02:02:20;;;;;;;1.60;1.20;;;;;;;-145.69;46.93;72079.00;5095489;28;20736;-78
2022/02/14 02:04:52;;;;;;;2.90;1.60;;;;;;;-145.69;47.81;72100.91;5095544;28;20289;-79
2022/02/14 02:07:30;;;;;;;2.87;1.50;;;;;;;-145.69;44.37;72075.03;5095490;28;20208;-79
2022/02/14 02:09:59;;;;;;;2.33;1.23;;;;;;;-145.69;45.77;72071.03;5096339;28;20248;-79
2022/02/14 02:12:26;;;;;;;3.20;1.37;;;;;;;-145.69;46.12;72104.88;5115518;28;20207;-79
2022/02/14 02:15:01;;;;;;;2.97;1.53;;;;;;;-145.69;45.09;72094.94;5114785;28;20194;-79
2022/02/14 02:17:30;;;;;;;3.40;1.70;;;;;;;-145.69;41.34;72017.31;5115943;28;20197;-78
2022/02/14 02:20:03;;;;;;;3.00;1.70;;;;;;;-145.69;45.30;72063.09;5115549;28;20587;-78
2022/02/14 02:22:31;;;;;;;3.80;1.60;;;;;;;-145.69;46.63;72098.91;5115524;28;20197;-78
2022/02/14 02:25:03;;;;;;;3.30;1.43;;;;;;;-145.69;48.46;72110.84;5115642;28;20556;-78
2022/02/14 02:27:32;;;;;;;4.20;1.50;;;;;;;-145.69;47.40;72114.81;5115677;28;20251;-78
2022/02/14 02:30:02;;;;;;;3.70;1.57;;;;;;;-145.69;45.02;72081.00;5115508;28;20204;-77
2022/02/14 02:32:30;;;;;;;3.97;1.70;;;;;;;-145.69;45.23;72098.91;5115747;28;20201;-78
2022/02/14 02:35:01;;;;;;;3.50;1.83;;;;;;;-145.69;45.29;72075.03;5115277;28;20194;-78
2022/02/14 02:37:33;;;;;;;2.60;1.40;;;;;;;-145.69;45.37;72082.97;5113917;28;20197;-78
2022/02/14 02:40:08;;;;;;;3.07;1.70;;;;;;;-145.69;44.96;72057.13;5115153;28;20228;-78
2022/02/14 02:42:34;;;;;;;5.47;1.60;;;;;;;-145.69;43.13;72065.06;5115278;28;20284;-78
2022/02/14 02:45:01;;;;;;;2.53;1.67;;;;;;;-145.69;45.54;72086.97;5115132;28;20208;-78
2022/02/14 02:47:39;;;;;;;2.10;1.50;;;;;;;-145.69;45.52;72073.03;5114900;28;20197;-78
2022/02/14 02:50:09;;;;;;;4.20;1.60;;;;;;;-145.69;46.46;72082.97;5115128;28;20200;-78
2022/02/14 02:52:40;;;;;;;3.50;1.50;;;;;;;-145.69;46.26;72051.16;5114474;28;20603;-78
2022/02/14 02:55:14;;;;;;;3.03;1.50;;;;;;;-145.69;45.79;72075.03;5114864;28;20321;-78
2022/02/14 02:57:48;;;;;;;3.83;1.67;;;;;;;-145.69;43.31;72023.28;5113181;28;20201;-77
2022/02/14 03:00:18;;;;;;;3.80;1.60;;;;;;;-145.69;43.28;71995.41;5094549;28;20223;-77
2022/02/14 03:02:46;;;;;;;4.13;1.90;;;;;;;-145.69;45.80;72019.31;5094132;28;20671;-77
2022/02/14 03:05:16;;;;;;;3.03;1.63;;;;;;;-145.69;44.58;72051.16;5093449;28;20568;-78
2022/02/14 03:07:49;;;;;;;3.83;1.50;;;;;;;-145.69;44.17;72063.09;5094282;28;20198;-78
2022/02/14 03:10:19;;;;;;;1.83;1.40;;;;;;;-145.69;46.03;72079.00;5094146;28;20202;-78
2022/02/14 03:12:53;;;;;;;3.87;1.83;;;;;;;-145.69;43.71;72039.19;5110287;28;20186;-78
2022/02/14 03:15:23;;;;;;;2.57;1.63;;;;;;;-145.69;45.90;72075.03;5114602;28;20194;-77
2022/02/14 03:17:58;;;;;;;2.77;1.20;;;;;;;-145.69;45.04;72069.06;5110895;28;20640;-78
2022/02/14 03:20:25;;;;;;;2.20;1.70;;;;;;;-145.69;44.81;72035.22;5114446;28;20319;-77
2022/02/14 03:22:51;;;;;;;3.70;1.70;;;;;;;-145.69;43.59;72009.34;5114281;28;20561;-77
2022/02/14 03:25:23;;;;;;;2.30;1.57;;;;;;;-145.69;43.26;71987.47;5114372;28;20193;-78
2022/02/14 03:27:50;;;;;;;3.07;1.43;;;;;;;-145.69;43.64;71957.59;5114375;28;20212;-78
2022/02/14 03:30:21;;;;;;;4.43;1.60;;;;;;;-145.69;45.19;71983.47;5114066;28;20205;-78
2022/02/14 03:32:50;;;;;;;2.53;1.43;;;;;;;-145.69;44.53;71987.47;5114364;28;20557;-78
2022/02/14 03:35:25;;;;;;;3.37;1.50;;;;;;;-145.69;42.18;71939.69;5113982;28;20209;-78
2022/02/14 03:37:51;;;;;;;3.37;1.70;;;;;;;-145.69;42.97;71941.69;5100969;28;20201;-78
2022/02/14 03:40:18;;;;;;;2.53;1.30;;;;;;;-145.69;43.82;71939.69;5093810;28;20228;-78
2022/02/14 03:42:46;;;;;;;3.77;1.67;;;;;;;-145.69;45.01;71947.66;5093764;28;20255;-78
2022/02/14 03:45:12;;;;;;;3.93;1.50;;;;;;;-145.69;45.26;71971.53;5093690;28;20202;-78
2022/02/14 03:47:39;;;;;;;2.67;1.30;;;;;;;-145.69;46.56;71985.47;5093676;28;20210;-78
2022/02/14 03:50:07;;;;;;;6.33;1.70;;;;;;;-145.69;46.10;71939.69;5093510;28;20205;-78
2022/02/14 03:52:33;;;;;;;6.60;1.83;;;;;;;-145.69;45.98;71947.66;5093512;28;20198;-77
2022/02/14 03:55:00;;;;;;;4.43;1.50;;;;;;;-145.69;44.89;71897.91;5093376;28;20237;-79
2022/02/14 03:57:26;;;;;;;4.67;1.33;;;;;;;-145.69;44.07;71891.94;5094748;28;20205;-77
2022/02/14 03:59:54;;;;;;;2.30;1.40;;;;;;;-145.69;43.38;71836.22;5113255;28;20648;-77
2022/02/14 04:02:21;;;;;;;3.10;1.43;;;;;;;-145.69;44.75;71866.06;5113594;28;20201;-78
2022/02/14 04:04:50;;;;;;;5.93;1.40;;;;;;;-145.69;45.87;71907.84;5113547;28;20230;-78
2022/02/14 04:07:17;;;;;;;4.20;1.70;;;;;;;-145.69;46.21;71913.81;5113751;28;20619;-78
2022/02/14 04:09:43;;;;;;;3.97;1.53;;;;;;;-145.69;43.89;71876.00;5113657;28;20201;-77
2022/02/14 04:12:10;;;;;;;4.03;1.33;;;;;;;-145.69;44.94;71889.94;5113482;28;20209;-77
2022/02/14 04:14:36;;;;;;;6.13;1.50;;;;;;;-145.69;44.55;71864.06;5113432;28;20529;-78
2022/02/14 04:17:04;;;;;;;3.27;1.50;;;;;;;-145.69;43.35;71844.16;5113434;28;20228;-77
2022/02/14 04:19:31;;;;;;;3.73;1.73;;;;;;;-145.69;42.23;71854.13;5113646;28;20204;-77
2022/02/14 04:21:57;;;;;;;3.47;1.60;;;;;;;-145.69;45.51;71868.06;5113443;28;20579;-78
2022/02/14 04:24:24;;;;;;;4.70;1.57;;;;;;;-145.69;44.44;71881.97;5113517;28;20209;-78
2022/02/14 04:26:50;;;;;;;5.73;1.70;;;;;;;-145.69;45.29;71870.03;5113391;28;20200;-77
2022/02/14 04:29:17;;;;;;;2.80;1.60;;;;;;;-145.69;44.25;71844.16;5096296;28;20190;-77
2022/02/14 04:31:44;;;;;;;3.67;1.80;;;;;;;-145.69;45.70;71856.09;5092831;28;20204;-77
2022/02/14 04:34:11;;;;;;;3.23;1.57;;;;;;;-145.69;44.80;71860.09;5092894;28;20672;-77
2022/02/14 04:36:38;;;;;;;2.30;1.40;;;;;;;-145.69;43.82;71824.25;5092814;28;20217;-77
2022/02/14 04:39:05;;;;;;;4.57;1.90;;;;;;;-145.69;46.33;71864.06;5096200;28;20671;-77
2022/02/14 04:41:31;;;;;;;6.13;1.67;;;;;;;-145.69;46.26;71840.19;5097109;28;20256;-77
2022/02/14 04:43:58;;;;;;;3.17;1.90;;;;;;;-145.69;44.43;71816.31;5096979;28;20194;-77
2022/02/14 04:46:27;;;;;;;3.57;1.50;;;;;;;-145.69;44.71;71816.31;5096903;28;20603;-77
2022/02/14 04:48:53;;;;;;;3.20;1.50;;;;;;;-145.69;46.38;71838.19;5097055;28;20210;-77
2022/02/14 04:51:21;;;;;;;3.53;1.60;;;;;;;-145.69;47.27;71842.19;5097086;28;20198;-77
2022/02/14 04:53:48;;;;;;;2.27;1.63;;;;;;;-145.69;44.71;71796.41;5096763;28;20197;-77
2022/02/14 04:56:14;;;;;;;8.83;1.77;;;;;;;-145.69;44.47;71788.44;5096775;28;20233;-77
2022/02/14 04:58:41;;;;;;;6.23;1.33;;;;;;;-145.69;45.01;71794.41;5107312;28;20656;-77
2022/02/14 05:01:08;;;;;;;2.43;1.70;;;;;;;-145.69;46.21;71820.28;5117219;28;20232;-77
2022/02/14 05:03:34;;;;;;;4.47;1.53;;;;;;;-145.69;45.96;71814.31;5116916;28;20296;-77
2022/02/14 05:06:01;;;;;;;4.60;1.50;;;;;;;-145.69;45.62;71808.34;5117017;28;20228;-77
2022/02/14 05:08:29;;;;;;;6.03;1.60;;;;;;;-145.69;45.55;71806.34;5116844;28;20725;-77
2022/02/14 05:10:56;;;;;;;2.13;1.17;;;;;;;-145.69;45.01;71792.44;5116973;28;20228;-77
2022/02/14 05:13:23;;;;;;;3.40;1.60;;;;;;;-145.69;46.33;71824.25;5116880;28;20404;-77
2022/02/14 05:15:50;;;;;;;4.67;1.63;;;;;;;-145.69;45.95;71800.38;5117083;28;20556;-77
2022/02/14 05:18:17;;;;;;;3.13;1.60;;;;;;;-145.69;45.32;71786.47;5116759;28;20663;-77
2022/02/14 05:20:43;;;;;;;4.40;1.63;;;;;;;-145.69;44.99;71802.38;5116871;28;20228;-77
2022/02/14 05:23:10;;;;;;;6.97;2.13;;;;;;;-145.69;44.87;71784.47;5116634;28;20201;-78
2022/02/14 05:25:39;;;;;;;7.63;2.10;;;;;;;-145.69;44.59;71766.56;5113157;28;20201;-78
2022/02/14 05:28:07;;;;;;;4.97;1.70;;;;;;;-145.69;45.77;71786.47;5107280;28;20676;-77
2022/02/14 05:30:33;;;;;;;5.73;1.53;;;;;;;-145.69;45.64;71790.44;5096329;28;20206;-77
2022/02/14 05:33:00;;;;;;;4.37;1.70;;;;;;;-145.69;46.02;71800.38;5096249;28;20305;-77
2022/02/14 05:35:27;;;;;;;6.07;2.30;;;;;;;-145.69;46.26;71798.41;5095989;28;20209;-77
2022/02/14 05:37:55;;;;;;;3.67;1.90;;;;;;;-145.69;47.15;71780.50;5096110;28;20205;-76
2022/02/14 05:40:21;;;;;;;4.07;2.00;;;;;;;-145.69;45.04;71702.88;5095784;28;20206;-77
2022/02/14 05:42:50;;;;;;;4.23;1.77;;;;;;;-145.69;44.87;71712.81;5095908;28;20205;-77
2022/02/14 05:45:19;;;;;;;6.27;1.70;;;;;;;-145.69;45.11;71738.69;5096038;28;20568;-77
2022/02/14 05:47:45;;;;;;;5.47;1.70;;;;;;;-145.69;45.37;71756.59;5095926;28;20209;-77
2022/02/14 05:50:12;;;;;;;9.50;2.50;;;;;;;-145.69;46.21;71754.63;5095633;28;20194;-77
2022/02/14 05:52:40;;;;;;;4.10;1.97;;;;;;;-145.69;46.53;71780.50;5096214;28;20208;-77
2022/02/14 05:55:08;;;;;;;6.70;1.87;;;;;;;-145.69;47.73;71796.41;5095468;28;20234;-77
2022/02/14 05:57:35;;;;;;;5.37;1.63;;;;;;;-145.69;50.28;71796.41;5100127;28;20201;-77
2022/02/14 06:00:05;;;;;;;7.40;2.30;;;;;;;-145.69;44.84;71746.66;5115767;28;20431;-78
2022/02/14 06:02:31;;;;;;;5.90;1.80;;;;;;;-145.69;46.33;71736.72;5115950;28;20234;-77
2022/02/14 06:04:58;;;;;;;5.03;1.83;;;;;;;-145.69;45.83;71732.72;5115944;28;20208;-77
2022/02/14 06:07:24;;;;;;;10.70;2.47;;;;;;;-145.69;47.96;71748.66;5115472;28;20200;-77
2022/02/14 06:09:51;;;;;;;4.37;1.90;;;;;;;-145.69;48.09;71728.75;5115736;28;20203;-77
2022/02/14 06:12:17;;;;;;;7.17;1.90;;;;;;;-145.69;48.69;71774.50;5115817;28;20197;-77
2022/02/14 06:14:44;;;;;;;6.07;1.93;;;;;;;-145.69;47.96;71784.47;5115882;28;20263;-78
2022/02/14 06:17:12;;;;;;;6.10;1.70;;;;;;;-145.69;49.88;71790.44;5115779;28;20289;-78
2022/02/14 06:19:38;;;;;;;3.87;1.77;;;;;;;-145.69;46.37;71736.72;5116445;28;20258;-78
2022/02/14 06:22:05;;;;;;;4.80;2.17;;;;;;;-145.69;48.36;71750.63;5115952;28;20225;-77
2022/02/14 06:24:31;;;;;;;5.00;1.97;;;;;;;-145.69;47.08;71738.69;5115580;28;20203;-77
2022/02/14 06:26:58;;;;;;;5.00;2.10;;;;;;;-145.69;46.77;71710.84;5115503;28;20197;-77
2022/02/14 06:29:24;;;;;;;8.90;1.70;;;;;;;-145.69;45.86;71726.75;5098264;28;20526;-78
2022/02/14 06:31:51;;;;;;;18.53;2.23;;;;;;;-145.69;46.92;71728.75;5095249;28;20198;-78
2022/02/14 06:34:19;;;;;;;5.80;2.47;;;;;;;-145.69;48.31;71768.53;5095084;28;20205;-77
2022/02/14 06:36:45;;;;;;;4.83;2.00;;;;;;;-145.69;47.39;71772.53;5094859;28;20202;-78
2022/02/14 06:39:12;;;;;;;4.50;1.80;;;;;;;-145.69;49.66;71784.47;5095140;28;20252;-78
2022/02/14 06:41:39;;;;;;;5.67;2.07;;;;;;;-145.69;49.26;71784.47;5094899;28;20232;-77
2022/02/14 06:44:05;;;;;;;7.43;1.80;;;;;;;-145.69;50.33;71804.38;5095009;28;20220;-78
2022/02/14 06:46:32;;;;;;;6.10;2.17;;;;;;;-145.69;51.68;71792.44;5094948;28;20237;-77
2022/02/14 06:48:58;;;;;;;3.63;1.77;;;;;;;-145.69;48.51;71802.38;5094597;28;20194;-78
2022/02/14 06:51:26;;;;;;;5.80;1.73;;;;;;;-145.69;49.99;71788.44;5094529;28;20202;-78
2022/02/14 06:53:53;;;;;;;5.30;2.07;;;;;;;-145.69;49.25;71772.53;5094914;28;20198;-78
2022/02/14 06:56:19;;;;;;;7.97;2.63;;;;;;;-145.69;49.84;71780.50;5094502;28;20226;-78
2022/02/14 06:58:49;;;;;;;3.10;1.77;;;;;;;-145.69;49.83;71790.44;5110973;28;20221;-78
2022/02/14 07:01:16;;;;;;;6.10;2.30;;;;;;;-145.69;48.28;71752.63;5114358;28;20225;-78
2022/02/14 07:03:44;;;;;;;8.03;2.00;;;;;;;-145.69;47.24;71716.81;5114657;28;20675;-78
2022/02/14 07:06:11;;;;;;;6.77;1.90;;;;;;;-145.69;47.40;71740.69;5114965;28;20205;-77
2022/02/14 07:08:42;;;;;;;6.63;1.90;;;;;;;-145.69;49.37;71772.53;5114791;28;20292;-78
2022/02/14 07:11:09;;;;;;;4.43;1.73;;;;;;;-145.69;50.37;71748.66;5114609;28;20197;-78
2022/02/14 07:13:35;;;;;;;8.53;2.10;;;;;;;-145.69;49.99;71736.72;5114691;28;20203;-78
2022/02/14 07:16:04;;;;;;;9.30;2.20;;;;;;;-145.69;49.34;71744.66;5114675;28;20197;-78
2022/02/14 07:18:31;;;;;;;24.03;7.43;;;;;;;-145.69;49.87;71756.59;5114429;28;20198;-78
2022/02/14 07:20:58;;;;;;;6.43;2.33;;;;;;;-145.69;48.40;71742.69;5114387;28;20560;-78
2022/02/14 07:23:24;;;;;;;5.50;1.93;;;;;;;-145.69;48.39;71748.66;5114530;28;20197;-78
2022/02/14 07:25:52;;;;;;;6.07;1.80;;;;;;;-145.69;52.58;71788.44;5111031;28;20197;-78
2022/02/14 07:28:19;;;;;;;10.90;4.60;;;;;;;-145.69;49.61;71770.53;5101479;28;20564;-78
2022/02/14 07:30:46;;;;;;;5.13;2.53;;;;;;;-145.69;51.98;71776.50;5093939;28;20202;-78
2022/02/14 07:33:12;;;;;;;6.57;2.67;;;;;;;-145.69;51.34;71792.44;5093805;28;20202;-78
2022/02/14 07:35:39;;;;;;;4.77;1.90;;;;;;;-145.69;50.42;71776.50;5094046;28;20198;-78
2022/02/14 07:38:05;;;;;;;7.50;2.30;;;;;;;-145.69;50.50;71750.63;5093964;28;20203;-77
2022/02/14 07:40:32;;;;;;;4.90;2.10;;;;;;;-145.69;51.09;71740.69;5093869;28;20293;-78
2022/02/14 07:43:00;;;;;;;4.87;2.20;;;;;;;-145.69;49.69;71684.97;5093663;28;20233;-78
2022/02/14 07:45:28;;;;;;;9.30;2.77;;;;;;;-145.69;50.29;71694.91;5093688;28;20205;-78
2022/02/14 07:47:54;;;;;;;8.10;1.90;;;;;;;-145.69;49.17;71677.00;5093873;28;20205;-79
2022/02/14 07:50:24;;;;;;;11.67;3.83;;;;;;;-145.69;48.67;71671.03;5093806;28;20206;-78
2022/02/14 07:52:53;;;;;;;14.30;4.40;;;;;;;-145.69;51.73;71702.88;5093581;28;20205;-78
2022/02/14 07:55:20;;;;;;;33.13;9.83;;;;;;;-145.69;50.56;71692.94;5093149;28;20234;-77
2022/02/14 07:57:46;;;;;;;11.27;4.60;;;;;;;-145.69;50.03;71679.00;5103502;28;20197;-77
2022/02/14 08:00:16;;;;;;;6.23;1.87;;;;;;;-145.69;49.46;71675.00;5113361;28;20564;-77
2022/02/14 08:02:43;;;;;;;8.80;3.20;;;;;;;-145.69;54.56;71708.84;5113515;28;20225;-77
2022/02/14 08:05:12;;;;;;;11.80;4.10;;;;;;;-145.69;53.07;71708.84;5112973;28;20284;-78
2022/02/14 08:07:38;;;;;;;5.93;2.90;;;;;;;-145.69;52.06;71651.13;5111470;28;20197;-77
2022/02/14 08:10:06;;;;;;;5.30;1.87;;;;;;;-145.69;51.58;71635.22;5111487;28;20197;-77
2022/02/14 08:12:34;;;;;;;5.93;1.90;;;;;;;-145.69;52.55;71629.25;5110512;28;20228;-78
2022/02/14 08:15:06;;;;;;;5.17;2.10;;;;;;;-145.69;51.98;71631.25;5111725;28;20280;-78
2022/02/14 08:17:37;;;;;;;4.57;2.07;;;;;;;-145.69;52.86;71625.25;5111551;28;20662;-78
2022/02/14 08:20:04;;;;;;;12.00;1.73;;;;;;;-145.69;52.13;71565.56;5111923;28;20208;-77
2022/02/14 08:22:35;;;;;;;5.00;1.73;;;;;;;-145.69;53.63;71577.50;5113458;28;20225;-78
2022/02/14 08:25:05;;;;;;;3.23;1.77;;;;;;;-145.69;51.66;71575.50;5113466;28;20201;-78
2022/02/14 08:27:31;;;;;;;5.03;1.60;;;;;;;-145.69;52.70;71561.59;5113678;28;20228;-78
2022/02/14 08:29:59;;;;;;;5.90;2.00;;;;;;;-145.69;52.95;71555.63;5113587;28;20204;-77
2022/02/14 08:32:26;;;;;;;11.27;2.20;;;;;;;-145.69;51.00;71527.75;5095648;28;20607;-78
2022/02/14 08:34:54;;;;;;;9.07;2.27;;;;;;;-145.69;52.79;71499.91;5093011;28;20194;-78
2022/02/14 08:37:20;;;;;;;10.37;2.33;;;;;;;-145.69;50.84;71442.19;5092934;28;20668;-78
2022/02/14 08:39:47;;;;;;;7.83;2.00;;;;;;;-145.69;49.02;71412.34;5092920;28;20198;-79
2022/02/14 08:42:15;;;;;;;7.07;1.80;;;;;;;-145.69;49.43;71382.50;5093061;28;20226;-78
2022/02/14 08:44:42;;;;;;;8.57;1.90;;;;;;;-145.69;48.22;71366.56;5094120;28;20709;-78
2022/02/14 08:47:09;;;;;;;3.90;1.80;;;;;;;-145.69;49.28;71378.50;5092864;28;20205;-79
2022/02/14 08:49:37;;;;;;;7.40;1.90;;;;;;;-145.69;48.57;71348.66;5092782;28;20664;-78
2022/02/14 08:52:05;;;;;;;6.03;1.80;;;;;;;-145.69;48.13;71332.75;5092801;28;20202;-78
2022/02/14 08:54:33;;;;;;;7.77;2.30;;;;;;;-145.69;49.00;71344.69;5092941;28;20217;-78
2022/02/14 08:56:59;;;;;;;7.20;2.50;;;;;;;-145.69;47.27;71320.81;5090790;28;20202;-79
2022/02/14 08:59:27;;;;;;;8.60;1.70;;;;;;;-145.69;47.09;71314.84;5092923;28;20197;-80
2022/02/14 09:01:59;;;;;;;7.10;2.10;;;;;;;-145.69;46.43;71308.88;5105223;28;20233;-80
2022/02/14 09:04:25;;;;;;;3.63;1.67;;;;;;;-145.69;48.71;71304.91;5113292;28;20197;-79
2022/02/14 09:06:52;;;;;;;5.07;1.40;;;;;;;-145.69;47.30;71294.94;5112993;28;20690;-80
2022/02/14 09:09:21;;;;;;;8.07;1.80;;;;;;;-145.69;47.26;71310.84;5113083;28;20225;-79
2022/02/14 09:11:49;;;;;;;3.00;1.60;;;;;;;-145.69;47.68;71304.91;5104083;28;20214;-80
2022/02/14 09:14:16;;;;;;;3.30;1.50;;;;;;;-145.69;50.75;71273.06;5092735;28;20204;-79
2022/02/14 09:16:43;;;;;;;5.73;1.73;;;;;;;-145.69;47.24;71251.16;5092502;28;20205;-80
2022/02/14 09:19:10;;;;;;;8.40;2.30;;;;;;;-145.69;47.58;71219.34;5092490;28;20205;-79
2022/02/14 09:21:36;;;;;;;5.13;1.80;;;;;;;-145.69;44.44;71183.50;5092697;28;20198;-79
2022/02/14 09:24:03;;;;;;;4.90;2.07;;;;;;;-145.69;42.82;71147.69;5096577;28;20205;-79
2022/02/14 09:26:31;;;;;;;5.53;1.77;;;;;;;-145.69;44.24;71113.88;5096386;28;20194;-79
2022/02/14 09:28:58;;;;;;;6.10;1.97;;;;;;;-145.69;44.14;71088.00;5096299;28;20205;-79
2022/02/14 09:31:24;;;;;;;9.07;1.50;;;;;;;-145.69;43.00;71064.13;5096356;28;20202;-79
2022/02/14 09:33:51;;;;;;;6.17;1.83;;;;;;;-145.69;43.48;71076.06;5096293;28;20222;-79
2022/02/14 09:36:21;;;;;;;4.40;1.40;;;;;;;-145.69;43.07;71084.03;5096309;28;20468;-79
2022/02/14 09:38:49;;;;;;;4.73;1.87;;;;;;;-145.69;42.44;71095.97;5096178;28;20209;-79
2022/02/14 09:41:18;;;;;;;3.97;1.57;;;;;;;-145.69;43.79;71080.06;5099030;28;20410;-79
2022/02/14 09:43:49;;;;;;;8.20;1.53;;;;;;;-145.69;43.27;71058.16;5116309;28;20236;-79
2022/02/14 09:46:27;;;;;;;3.87;1.30;;;;;;;-145.69;41.77;71050.22;5116498;28;20352;-79
2022/02/14 09:48:55;;;;;;;12.57;1.80;;;;;;;-145.69;44.05;71064.13;5116255;28;20648;-79
2022/02/14 09:51:25;;;;;;;4.83;1.50;;;;;;;-145.69;45.07;71048.22;5116303;28;20709;-79
2022/02/14 09:54:01;;;;;;;4.67;1.27;;;;;;;-145.69;43.76;71006.44;5116243;28;20630;-79
2022/02/14 09:56:29;;;;;;;3.23;1.60;;;;;;;-145.69;43.78;71010.41;5115679;28;20224;-79
2022/02/14 09:58:57;;;;;;;3.73;1.50;;;;;;;-145.69;45.18;71004.44;5115970;28;20292;-79
2022/02/14 10:01:27;;;;;;;2.90;1.30;;;;;;;-145.69;45.33;70980.56;5116082;28;20541;-79
2022/02/14 10:03:58;;;;;;;3.57;1.30;;;;;;;-145.69;46.49;70986.53;5116173;28;20323;-79
2022/02/14 10:06:26;;;;;;;4.57;1.30;;;;;;;-145.69;48.53;70964.66;5116000;28;20750;-79
2022/02/14 10:09:16;;;;;;;8.70;1.70;;;;;;;-145.69;45.41;70958.69;5115898;28;20201;-77
2022/02/14 10:12:11;;;;;;;3.60;1.30;;;;;;;-145.69;47.57;70940.78;5105465;28;20243;-78
2022/02/14 10:14:40;;;;;;;5.63;1.30;;;;;;;-145.69;45.51;70891.03;5095201;28;20202;-79
2022/02/14 10:17:18;;;;;;;3.40;1.60;;;;;;;-145.69;44.79;70902.97;5095303;28;20225;-79
2022/02/14 10:19:56;;;;;;;6.53;2.00;;;;;;;-145.69;45.35;70944.75;5095136;28;20255;-79
2022/02/14 10:22:24;;;;;;;4.45;1.40;;;;;;;-145.69;43.82;70936.78;5095439;28;20229;-79
2022/02/14 10:24:52;;;;;;;7.00;1.77;;;;;;;-145.69;44.14;70956.69;5095331;28;20198;-79
2022/02/14 10:27:31;;;;;;;3.45;1.45;;;;;;;-145.69;45.21;70924.84;5095335;28;20293;-79
2022/02/14 10:30:09;;;;;;;3.77;1.50;;;;;;;-145.69;44.99;70932.81;5097837;28;20254;-79
2022/02/14 10:32:49;;;;;;;3.60;1.30;;;;;;;-145.69;45.95;70932.81;5115546;28;20723;-80
2022/02/14 10:35:18;;;;;;;5.50;2.58;;;;;;;-145.69;42.98;70936.78;5114611;28;20702;-79
2022/02/14 10:37:46;;;;;;;5.15;1.83;;;;;;;-145.69;43.93;70984.53;5115267;28;20212;-79
2022/02/14 10:40:27;;;;;;;5.88;1.35;;;;;;;-145.69;44.63;70990.50;5115260;28;20201;-80
2022/02/14 10:42:53;;;;;;;8.27;2.47;;;;;;;-145.69;46.06;71020.34;5114300;28;20217;-79
2022/02/14 10:45:23;;;;;;;3.33;1.40;;;;;;;-145.69;50.04;71034.28;5114686;28;20193;-78
2022/02/14 10:47:50;;;;;;;5.97;1.80;;;;;;;-145.69;49.39;71036.28;5115312;28;20205;-79
2022/02/14 10:50:18;;;;;;;6.18;1.52;;;;;;;-145.69;47.68;71030.31;5114833;28;20241;-79
2022/02/14 10:52:48;;;;;;;6.68;1.85;;;;;;;-145.69;47.16;71006.44;5115273;28;20204;-79
2022/02/14 10:55:18;;;;;;;5.87;1.43;;;;;;;-145.69;49.15;71040.25;5114981;28;20282;-79
2022/02/14 10:57:47;;;;;;;4.10;1.20;;;;;;;-145.69;50.63;71052.19;5115353;28;20545;-79
2022/02/14 11:00:15;;;;;;;4.13;1.50;;;;;;;-145.69;51.46;71052.19;5115378;28;20205;-79
2022/02/14 11:02:47;;;;;;;2.83;1.37;;;;;;;-145.69;51.13;71024.34;5113787;28;20238;-79
2022/02/14 11:05:16;;;;;;;9.47;1.73;;;;;;;-145.69;52.34;71004.44;5094319;28;20198;-78
2022/02/14 11:07:43;;;;;;;4.10;1.33;;;;;;;-145.69;52.30;71008.41;5094307;28;20198;-79
2022/02/14 11:10:12;;;;;;;6.80;1.47;;;;;;;-145.69;52.74;70992.50;5094518;28;20194;-79
2022/02/14 11:12:41;;;;;;;3.30;1.17;;;;;;;-145.69;52.85;70952.72;5094376;28;20190;-79
2022/02/14 11:15:10;;;;;;;5.13;1.40;;;;;;;-145.69;54.55;71000.47;5094195;28;20209;-79
2022/02/14 11:17:46;;;;;;;2.67;1.40;;;;;;;-145.69;57.21;71040.25;5094182;28;20259;-80
2022/02/14 11:20:15;;;;;;;3.43;1.27;;;;;;;-145.69;55.99;70956.69;5094068;28;20641;-80
2022/02/14 11:22:44;;;;;;;5.67;1.50;;;;;;;-145.69;56.65;70912.91;5094014;28;20741;-80
2022/02/14 11:25:21;;;;;;;6.80;1.67;;;;;;;-145.69;57.17;70930.81;5094071;28;20201;-80
2022/02/14 11:27:57;;;;;;;6.37;1.40;;;;;;;-145.69;58.37;70960.66;5093928;28;20707;-79